PWSweather.com
Personal Weather Stations
Station Observations
SHAHALMS1
Eftra, Falkenberg, HA

EftraFalkenberg, HA

Lat: 56.85, Lon: 12.65

Elevation: 140

Station Type:

http://hem.passagen.se/risarp101

High Low Average
Temperature 60.1°F15.6°C 54.7°F12.6°C 57.5°F14.2°C
Dew Point 58.5°F14.7°C 49.6°F9.8°C 55.2°F12.9°C
Winds 11.8 mph 19.0 kmh 3.2 mph 5.1 kmh 6.0 mph E9.7 kmh E
Wind Gusts 28.3 mph45.5 kmh 5.7 mph9.2 kmh 8.0 mph12.9 kmh
Humidity 95% 83% 92%
Pressure 29.83 in1010.2 mb 29.62 in1003.0 mb -
Precipitation 0.58 in14.7 mm - -
Hour Temp Dew Point Humidity Winds Wind Gusts Pressure Precip Precip Rate Daily Precip Total
12:00 AM 54.7°F12.6°C 49.6°F9.8°C 83% 8.5 mph ESE13.7 kmh ESE 17.2 mph27.7 kmh 29.83 in1010.2 mb 0.00 in0.0 mm 0.00 in0.0 mm 0.00 in0.0 mm
12:10 AM 54.7°F12.6°C 49.6°F9.8°C 83% 9.8 mph ESE15.8 kmh ESE 18.3 mph29.5 kmh 29.83 in1010.2 mb 0.00 in0.0 mm 0.00 in0.0 mm 0.00 in0.0 mm
12:20 AM 54.7°F12.6°C 49.9°F9.9°C 84% 9.5 mph ESE15.3 kmh ESE 15.7 mph25.3 kmh 29.83 in1010.2 mb 0.00 in0.0 mm 0.00 in0.0 mm 0.00 in0.0 mm
12:30 AM 54.7°F12.6°C 49.9°F9.9°C 84% 8.4 mph ESE13.5 kmh ESE 17.5 mph28.2 kmh 29.83 in1010.2 mb 0.00 in0.0 mm 0.00 in0.0 mm 0.00 in0.0 mm
12:40 AM 54.9°F12.7°C 50.1°F10.1°C 84% 7.4 mph E11.9 kmh E 20.0 mph32.2 kmh 29.83 in1010.2 mb 0.00 in0.0 mm 0.00 in0.0 mm 0.00 in0.0 mm
12:50 AM 54.9°F12.7°C 50.1°F10.1°C 84% 5.1 mph SE8.2 kmh SE 8.6 mph13.8 kmh 29.83 in1010.2 mb 0.00 in0.0 mm 0.00 in0.0 mm 0.00 in0.0 mm
01:00 AM 54.9°F12.7°C 50.4°F10.2°C 85% 9.3 mph E15.0 kmh E 16.8 mph27.0 kmh 29.83 in1010.2 mb 0.00 in0.0 mm 0.00 in0.0 mm 0.00 in0.0 mm
01:10 AM 55.0°F12.8°C 50.6°F10.3°C 85% 9.4 mph ESE15.1 kmh ESE 20.4 mph32.8 kmh 29.83 in1010.2 mb 0.00 in0.0 mm 0.00 in0.0 mm 0.00 in0.0 mm
01:20 AM 55.0°F12.8°C 50.6°F10.3°C 85% 8.1 mph E13.0 kmh E 19.3 mph31.1 kmh 29.83 in1010.2 mb 0.00 in0.0 mm 0.00 in0.0 mm 0.00 in0.0 mm
01:30 AM 55.2°F12.9°C 50.8°F10.4°C 85% 10.2 mph E16.4 kmh E 19.3 mph31.1 kmh 29.80 in1009.1 mb 0.00 in0.0 mm 0.00 in0.0 mm 0.00 in0.0 mm
01:40 AM 55.2°F12.9°C 50.8°F10.4°C 85% 11.8 mph E19.0 kmh E 28.3 mph45.5 kmh 29.80 in1009.1 mb 0.00 in0.0 mm 0.00 in0.0 mm 0.00 in0.0 mm
01:50 AM 55.4°F13.0°C 51.0°F10.6°C 85% 9.9 mph E15.9 kmh E 16.8 mph27.0 kmh 29.80 in1009.1 mb 0.00 in0.0 mm 0.00 in0.0 mm 0.00 in0.0 mm
02:00 AM 55.4°F13.0°C 51.0°F10.6°C 85% 8.7 mph E14.0 kmh E 15.4 mph24.8 kmh 29.80 in1009.1 mb 0.00 in0.0 mm 0.00 in0.0 mm 0.00 in0.0 mm
02:10 AM 55.6°F13.1°C 51.1°F10.6°C 85% 9.7 mph E15.6 kmh E 20.0 mph32.2 kmh 29.80 in1009.1 mb 0.00 in0.0 mm 0.00 in0.0 mm 0.00 in0.0 mm
02:20 AM 55.8°F13.2°C 51.3°F10.7°C 85% 8.6 mph ESE13.8 kmh ESE 15.4 mph24.8 kmh 29.80 in1009.1 mb 0.00 in0.0 mm 0.00 in0.0 mm 0.00 in0.0 mm
02:30 AM 55.8°F13.2°C 51.3°F10.7°C 85% 8.4 mph ESE13.5 kmh ESE 13.6 mph21.9 kmh 29.80 in1009.1 mb 0.00 in0.0 mm 0.00 in0.0 mm 0.00 in0.0 mm
02:40 AM 55.9°F13.3°C 51.5°F10.8°C 85% 10.8 mph E17.4 kmh E 27.9 mph44.9 kmh 29.77 in1008.1 mb 0.00 in0.0 mm 0.00 in0.0 mm 0.00 in0.0 mm
02:50 AM 56.1°F13.4°C 51.7°F10.9°C 85% 7.5 mph E12.1 kmh E 12.9 mph20.8 kmh 29.77 in1008.1 mb 0.00 in0.0 mm 0.00 in0.0 mm 0.00 in0.0 mm
03:00 AM 56.1°F13.4°C 51.7°F10.9°C 85% 9.1 mph E14.6 kmh E 19.7 mph31.7 kmh 29.77 in1008.1 mb 0.00 in0.0 mm 0.00 in0.0 mm 0.00 in0.0 mm
03:10 AM 56.3°F13.5°C 51.8°F11.0°C 85% 8.0 mph E12.9 kmh E 11.8 mph19.0 kmh 29.77 in1008.1 mb 0.00 in0.0 mm 0.00 in0.0 mm 0.00 in0.0 mm
03:20 AM 56.3°F13.5°C 51.8°F11.0°C 85% 9.2 mph ESE14.8 kmh ESE 15.7 mph25.3 kmh 29.77 in1008.1 mb 0.00 in0.0 mm 0.00 in0.0 mm 0.00 in0.0 mm
03:30 AM 56.3°F13.5°C 52.2°F11.2°C 86% 9.2 mph E14.8 kmh E 17.5 mph28.2 kmh 29.77 in1008.1 mb 0.00 in0.0 mm 0.00 in0.0 mm 0.00 in0.0 mm
03:40 AM 56.5°F13.6°C 52.3°F11.3°C 86% 10.1 mph E16.3 kmh E 20.0 mph32.2 kmh 29.74 in1007.1 mb 0.00 in0.0 mm 0.00 in0.0 mm 0.00 in0.0 mm
03:50 AM 56.7°F13.7°C 52.5°F11.4°C 86% 9.1 mph ESE14.6 kmh ESE 16.8 mph27.0 kmh 29.74 in1007.1 mb 0.00 in0.0 mm 0.00 in0.0 mm 0.00 in0.0 mm
04:00 AM 56.8°F13.8°C 53.0°F11.7°C 87% 8.2 mph E13.2 kmh E 12.5 mph20.1 kmh 29.77 in1008.1 mb 0.00 in0.0 mm 0.00 in0.0 mm 0.00 in0.0 mm
04:10 AM 57.0°F13.9°C 53.2°F11.8°C 87% 8.8 mph ESE14.2 kmh ESE 19.7 mph31.7 kmh 29.77 in1008.1 mb 0.00 in0.0 mm 0.00 in0.0 mm 0.00 in0.0 mm
04:20 AM 57.2°F14.0°C 53.4°F11.9°C 87% 9.7 mph ESE15.6 kmh ESE 17.5 mph28.2 kmh 29.77 in1008.1 mb 0.00 in0.0 mm 0.00 in0.0 mm 0.00 in0.0 mm
04:30 AM 57.2°F14.0°C 53.4°F11.9°C 87% 8.9 mph E14.3 kmh E 15.7 mph25.3 kmh 29.77 in1008.1 mb 0.00 in0.0 mm 0.00 in0.0 mm 0.00 in0.0 mm
04:40 AM 57.4°F14.1°C 53.9°F12.2°C 88% 10.1 mph E16.3 kmh E 14.7 mph23.7 kmh 29.74 in1007.1 mb 0.00 in0.0 mm 0.00 in0.0 mm 0.00 in0.0 mm
04:50 AM 57.4°F14.1°C 53.9°F12.2°C 88% 8.0 mph E12.9 kmh E 14.7 mph23.7 kmh 29.74 in1007.1 mb 0.00 in0.0 mm 0.00 in0.0 mm 0.00 in0.0 mm
05:00 AM 57.4°F14.1°C 53.9°F12.2°C 88% 7.6 mph E12.2 kmh E 11.8 mph19.0 kmh 29.74 in1007.1 mb 0.00 in0.0 mm 0.00 in0.0 mm 0.00 in0.0 mm
05:10 AM 57.6°F14.2°C 54.0°F12.2°C 88% 7.2 mph ESE11.6 kmh ESE 11.8 mph19.0 kmh 29.74 in1007.1 mb 0.00 in0.0 mm 0.00 in0.0 mm 0.00 in0.0 mm
05:20 AM 57.6°F14.2°C 54.0°F12.2°C 88% 7.0 mph ESE11.3 kmh ESE 11.8 mph19.0 kmh 29.74 in1007.1 mb 0.00 in0.0 mm 0.00 in0.0 mm 0.00 in0.0 mm
05:30 AM 57.7°F14.3°C 54.5°F12.5°C 89% 9.6 mph ESE15.4 kmh ESE 16.8 mph27.0 kmh 29.71 in1006.1 mb 0.00 in0.0 mm 0.00 in0.0 mm 0.00 in0.0 mm
05:40 AM 57.7°F14.3°C 54.5°F12.5°C 89% 9.7 mph SE15.6 kmh SE 16.5 mph26.6 kmh 29.74 in1007.1 mb 0.00 in0.0 mm 0.00 in0.0 mm 0.00 in0.0 mm
05:50 AM 57.7°F14.3°C 54.5°F12.5°C 89% 3.2 mph ESE5.1 kmh ESE 8.6 mph13.8 kmh 29.74 in1007.1 mb 0.00 in0.0 mm 0.00 in0.0 mm 0.00 in0.0 mm
06:00 AM 57.9°F14.4°C 54.7°F12.6°C 89% 7.0 mph ESE11.3 kmh ESE 8.6 mph13.8 kmh 29.71 in1006.1 mb 0.00 in0.0 mm 0.00 in0.0 mm 0.00 in0.0 mm
06:10 AM 57.7°F14.3°C 54.8°F12.7°C 90% 5.7 mph E9.2 kmh E 8.6 mph13.8 kmh 29.71 in1006.1 mb 0.00 in0.0 mm 0.00 in0.0 mm 0.00 in0.0 mm
06:20 AM 57.7°F14.3°C 54.8°F12.7°C 90% 4.7 mph E7.6 kmh E 6.1 mph9.8 kmh 29.71 in1006.1 mb 0.00 in0.0 mm 0.00 in0.0 mm 0.00 in0.0 mm
06:30 AM 57.7°F14.3°C 54.8°F12.7°C 90% 4.7 mph E7.6 kmh E 5.7 mph9.2 kmh 29.71 in1006.1 mb 0.00 in0.0 mm 0.00 in0.0 mm 0.00 in0.0 mm
06:40 AM 57.7°F14.3°C 54.8°F12.7°C 90% 4.7 mph E7.6 kmh E 5.7 mph9.2 kmh 29.71 in1006.1 mb 0.00 in0.0 mm 0.00 in0.0 mm 0.00 in0.0 mm
06:50 AM 57.7°F14.3°C 55.1°F12.8°C 91% 4.7 mph E7.6 kmh E 5.7 mph9.2 kmh 29.71 in1006.1 mb 0.00 in0.0 mm 0.00 in0.0 mm 0.00 in0.0 mm
07:00 AM 57.7°F14.3°C 55.1°F12.8°C 91% 4.7 mph E7.6 kmh E 5.7 mph9.2 kmh 29.71 in1006.1 mb 0.00 in0.0 mm 0.00 in0.0 mm 0.00 in0.0 mm
07:10 AM 57.7°F14.3°C 55.1°F12.8°C 91% 4.7 mph E7.6 kmh E 5.7 mph9.2 kmh 29.71 in1006.1 mb 0.05 in1.3 mm 0.30 in7.6 mm 0.05 in1.3 mm
07:20 AM 57.7°F14.3°C 55.4°F13.0°C 92% 4.7 mph E7.6 kmh E 5.7 mph9.2 kmh 29.71 in1006.1 mb 0.05 in1.3 mm 0.00 in0.0 mm 0.05 in1.3 mm
07:30 AM 57.9°F14.4°C 55.6°F13.1°C 92% 4.7 mph E7.6 kmh E 5.7 mph9.2 kmh 29.71 in1006.1 mb 0.10 in2.5 mm 0.30 in7.6 mm 0.10 in2.5 mm
07:40 AM 57.9°F14.4°C 55.6°F13.1°C 92% 4.7 mph E7.6 kmh E 5.7 mph9.2 kmh 29.68 in1005.1 mb 0.10 in2.5 mm 0.00 in0.0 mm 0.10 in2.5 mm
07:50 AM 57.9°F14.4°C 55.6°F13.1°C 92% 4.7 mph E7.6 kmh E 5.7 mph9.2 kmh 29.68 in1005.1 mb 0.15 in3.8 mm 0.30 in7.6 mm 0.15 in3.8 mm
08:00 AM 57.9°F14.4°C 55.9°F13.3°C 93% 4.7 mph E7.6 kmh E 5.7 mph9.2 kmh 29.71 in1006.1 mb 0.15 in3.8 mm 0.00 in0.0 mm 0.15 in3.8 mm
08:10 AM 57.9°F14.4°C 55.9°F13.3°C 93% 4.7 mph E7.6 kmh E 5.7 mph9.2 kmh 29.71 in1006.1 mb 0.15 in3.8 mm 0.00 in0.0 mm 0.20 in5.1 mm
08:20 AM 57.9°F14.4°C 55.9°F13.3°C 93% 4.7 mph E7.6 kmh E 5.7 mph9.2 kmh 29.71 in1006.1 mb 0.15 in3.8 mm 0.00 in0.0 mm 0.20 in5.1 mm
08:30 AM 57.9°F14.4°C 55.9°F13.3°C 93% 4.7 mph E7.6 kmh E 5.7 mph9.2 kmh 29.71 in1006.1 mb 0.14 in3.6 mm 0.00 in0.0 mm 0.24 in6.1 mm
08:40 AM 57.9°F14.4°C 56.2°F13.4°C 94% 4.7 mph E7.6 kmh E 5.7 mph9.2 kmh 29.71 in1006.1 mb 0.19 in4.8 mm 0.30 in7.6 mm 0.29 in7.4 mm
08:50 AM 57.9°F14.4°C 56.2°F13.4°C 94% 4.7 mph E7.6 kmh E 5.7 mph9.2 kmh 29.71 in1006.1 mb 0.14 in3.6 mm 0.00 in0.0 mm 0.29 in7.4 mm
09:00 AM 58.1°F14.5°C 56.4°F13.6°C 94% 4.7 mph E7.6 kmh E 5.7 mph9.2 kmh 29.68 in1005.1 mb 0.19 in4.8 mm 0.06 in1.5 mm 0.34 in8.6 mm
09:10 AM 58.3°F14.6°C 56.6°F13.7°C 94% 4.7 mph E7.6 kmh E 5.7 mph9.2 kmh 29.68 in1005.1 mb 0.15 in3.8 mm 0.00 in0.0 mm 0.34 in8.6 mm
09:20 AM 58.3°F14.6°C 56.9°F13.8°C 95% 4.7 mph E7.6 kmh E 5.7 mph9.2 kmh 29.68 in1005.1 mb 0.10 in2.5 mm 0.00 in0.0 mm 0.34 in8.6 mm
09:30 AM 58.5°F14.7°C 57.0°F13.9°C 95% 4.7 mph E7.6 kmh E 5.7 mph9.2 kmh 29.68 in1005.1 mb 0.10 in2.5 mm 0.00 in0.0 mm 0.34 in8.6 mm
09:40 AM 58.5°F14.7°C 57.0°F13.9°C 95% 4.7 mph E7.6 kmh E 5.7 mph9.2 kmh 29.65 in1004.1 mb 0.06 in1.5 mm 0.00 in0.0 mm 0.34 in8.6 mm
09:50 AM 58.6°F14.8°C 57.2°F14.0°C 95% 4.7 mph E7.6 kmh E 5.7 mph9.2 kmh 29.65 in1004.1 mb 0.06 in1.5 mm 0.00 in0.0 mm 0.34 in8.6 mm
10:00 AM 58.8°F14.9°C 57.4°F14.1°C 95% 4.7 mph E7.6 kmh E 5.7 mph9.2 kmh 29.65 in1004.1 mb 0.00 in0.0 mm 0.00 in0.0 mm 0.34 in8.6 mm
10:10 AM 58.8°F14.9°C 57.4°F14.1°C 95% 4.7 mph E7.6 kmh E 5.7 mph9.2 kmh 29.65 in1004.1 mb 0.04 in1.0 mm 0.24 in6.1 mm 0.38 in9.7 mm
10:20 AM 59.0°F15.0°C 57.6°F14.2°C 95% 4.7 mph E7.6 kmh E 5.7 mph9.2 kmh 29.65 in1004.1 mb 0.04 in1.0 mm 0.00 in0.0 mm 0.38 in9.7 mm
10:30 AM 59.0°F15.0°C 57.6°F14.2°C 95% 4.7 mph E7.6 kmh E 5.7 mph9.2 kmh 29.65 in1004.1 mb 0.04 in1.0 mm 0.00 in0.0 mm 0.38 in9.7 mm
10:40 AM 59.0°F15.0°C 57.6°F14.2°C 95% 4.7 mph E7.6 kmh E 5.7 mph9.2 kmh 29.62 in1003.0 mb 0.09 in2.3 mm 0.30 in7.6 mm 0.44 in11.2 mm
10:50 AM 59.0°F15.0°C 57.6°F14.2°C 95% 4.7 mph E7.6 kmh E 5.7 mph9.2 kmh 29.62 in1003.0 mb 0.09 in2.3 mm 0.00 in0.0 mm 0.44 in11.2 mm
11:00 AM 59.0°F15.0°C 57.6°F14.2°C 95% 4.7 mph E7.6 kmh E 5.7 mph9.2 kmh 29.65 in1004.1 mb 0.09 in2.3 mm 0.00 in0.0 mm 0.44 in11.2 mm
11:10 AM 59.0°F15.0°C 57.6°F14.2°C 95% 4.7 mph E7.6 kmh E 5.7 mph9.2 kmh 29.65 in1004.1 mb 0.10 in2.5 mm 0.06 in1.5 mm 0.48 in12.2 mm
11:20 AM 59.2°F15.1°C 57.7°F14.3°C 95% 4.7 mph E7.6 kmh E 5.7 mph9.2 kmh 29.65 in1004.1 mb 0.15 in3.8 mm 0.30 in7.6 mm 0.53 in13.5 mm
11:30 AM 59.2°F15.1°C 57.7°F14.3°C 95% 4.7 mph E7.6 kmh E 5.7 mph9.2 kmh 29.62 in1003.0 mb 0.15 in3.8 mm 0.00 in0.0 mm 0.53 in13.5 mm
11:40 AM 59.4°F15.2°C 57.9°F14.4°C 95% 4.7 mph E7.6 kmh E 5.7 mph9.2 kmh 29.62 in1003.0 mb 0.09 in2.3 mm 0.00 in0.0 mm 0.53 in13.5 mm
11:50 AM 59.4°F15.2°C 57.9°F14.4°C 95% 4.7 mph E7.6 kmh E 5.7 mph9.2 kmh 29.62 in1003.0 mb 0.09 in2.3 mm 0.00 in0.0 mm 0.53 in13.5 mm
12:00 PM 59.7°F15.4°C 58.3°F14.6°C 95% 4.7 mph E7.6 kmh E 5.7 mph9.2 kmh 29.62 in1003.0 mb 0.09 in2.3 mm 0.00 in0.0 mm 0.53 in13.5 mm
12:10 PM 59.7°F15.4°C 58.3°F14.6°C 95% 4.7 mph E7.6 kmh E 5.7 mph9.2 kmh 29.62 in1003.0 mb 0.05 in1.3 mm 0.00 in0.0 mm 0.53 in13.5 mm
12:20 PM 59.7°F15.4°C 58.3°F14.6°C 95% 4.7 mph E7.6 kmh E 5.7 mph9.2 kmh 29.62 in1003.0 mb 0.00 in0.0 mm 0.00 in0.0 mm 0.53 in13.5 mm
12:30 PM 59.9°F15.5°C 58.5°F14.7°C 95% 4.7 mph E7.6 kmh E 5.7 mph9.2 kmh 29.65 in1004.1 mb 0.00 in0.0 mm 0.00 in0.0 mm 0.53 in13.5 mm
12:40 PM 59.7°F15.4°C 58.3°F14.6°C 95% 4.7 mph E7.6 kmh E 5.7 mph9.2 kmh 29.65 in1004.1 mb 0.00 in0.0 mm 0.00 in0.0 mm 0.53 in13.5 mm
12:50 PM 59.7°F15.4°C 58.3°F14.6°C 95% 4.7 mph E7.6 kmh E 5.7 mph9.2 kmh 29.65 in1004.1 mb 0.00 in0.0 mm 0.00 in0.0 mm 0.53 in13.5 mm
01:00 PM 59.7°F15.4°C 58.3°F14.6°C 95% 4.7 mph E7.6 kmh E 5.7 mph9.2 kmh 29.65 in1004.1 mb 0.05 in1.3 mm 0.06 in1.5 mm 0.58 in14.7 mm
01:10 PM 59.7°F15.4°C 58.3°F14.6°C 95% 4.7 mph E7.6 kmh E 5.7 mph9.2 kmh 29.65 in1004.1 mb 0.05 in1.3 mm 0.00 in0.0 mm 0.58 in14.7 mm
01:20 PM 59.9°F15.5°C 58.5°F14.7°C 95% 4.7 mph E7.6 kmh E 5.7 mph9.2 kmh 29.65 in1004.1 mb 0.05 in1.3 mm 0.00 in0.0 mm 0.58 in14.7 mm
01:30 PM 59.9°F15.5°C 58.5°F14.7°C 95% 4.7 mph E7.6 kmh E 5.7 mph9.2 kmh 29.65 in1004.1 mb 0.05 in1.3 mm 0.00 in0.0 mm 0.58 in14.7 mm
01:40 PM 59.9°F15.5°C 58.5°F14.7°C 95% 4.7 mph E7.6 kmh E 5.7 mph9.2 kmh 29.65 in1004.1 mb 0.05 in1.3 mm 0.00 in0.0 mm 0.58 in14.7 mm
01:50 PM 59.9°F15.5°C 58.5°F14.7°C 95% 4.7 mph E7.6 kmh E 5.7 mph9.2 kmh 29.65 in1004.1 mb 0.00 in0.0 mm 0.00 in0.0 mm 0.58 in14.7 mm
02:00 PM 59.9°F15.5°C 58.5°F14.7°C 95% 4.7 mph E7.6 kmh E 5.7 mph9.2 kmh 29.65 in1004.1 mb 0.00 in0.0 mm 0.00 in0.0 mm 0.58 in14.7 mm
02:10 PM 59.7°F15.4°C 58.3°F14.6°C 95% 4.7 mph E7.6 kmh E 5.7 mph9.2 kmh 29.68 in1005.1 mb 0.00 in0.0 mm 0.00 in0.0 mm 0.58 in14.7 mm
02:20 PM 59.4°F15.2°C 57.6°F14.2°C 94% 4.7 mph E7.6 kmh E 5.7 mph9.2 kmh 29.68 in1005.1 mb 0.00 in0.0 mm 0.00 in0.0 mm 0.58 in14.7 mm
02:30 PM 59.4°F15.2°C 57.6°F14.2°C 94% 4.7 mph E7.6 kmh E 5.7 mph9.2 kmh 29.65 in1004.1 mb 0.00 in0.0 mm 0.00 in0.0 mm 0.58 in14.7 mm
02:40 PM 59.5°F15.3°C 58.1°F14.5°C 95% 4.7 mph E7.6 kmh E 5.7 mph9.2 kmh 29.68 in1005.1 mb 0.00 in0.0 mm 0.00 in0.0 mm 0.58 in14.7 mm
02:50 PM 59.7°F15.4°C 58.3°F14.6°C 95% 4.7 mph E7.6 kmh E 5.7 mph9.2 kmh 29.68 in1005.1 mb 0.00 in0.0 mm 0.00 in0.0 mm 0.58 in14.7 mm
03:00 PM 59.7°F15.4°C 58.3°F14.6°C 95% 4.7 mph E7.6 kmh E 5.7 mph9.2 kmh 29.68 in1005.1 mb 0.00 in0.0 mm 0.00 in0.0 mm 0.58 in14.7 mm
03:10 PM 59.9°F15.5°C 58.5°F14.7°C 95% 4.7 mph E7.6 kmh E 5.7 mph9.2 kmh 29.62 in1003.0 mb 0.00 in0.0 mm 0.00 in0.0 mm 0.58 in14.7 mm
03:20 PM 59.9°F15.5°C 58.5°F14.7°C 95% 4.7 mph E7.6 kmh E 5.7 mph9.2 kmh 29.62 in1003.0 mb 0.00 in0.0 mm 0.00 in0.0 mm 0.58 in14.7 mm
03:30 PM 59.9°F15.5°C 58.5°F14.7°C 95% 4.7 mph E7.6 kmh E 5.7 mph9.2 kmh 29.65 in1004.1 mb 0.00 in0.0 mm 0.00 in0.0 mm 0.58 in14.7 mm
03:40 PM 59.5°F15.3°C 57.8°F14.3°C 94% 4.7 mph E7.6 kmh E 5.7 mph9.2 kmh 29.62 in1003.0 mb 0.00 in0.0 mm 0.00 in0.0 mm 0.58 in14.7 mm
03:50 PM 59.7°F15.4°C 58.0°F14.4°C 94% 4.7 mph E7.6 kmh E 5.7 mph9.2 kmh 29.62 in1003.0 mb 0.00 in0.0 mm 0.00 in0.0 mm 0.58 in14.7 mm
04:00 PM 59.9°F15.5°C 58.2°F14.6°C 94% 4.7 mph E7.6 kmh E 5.7 mph9.2 kmh 29.62 in1003.0 mb 0.00 in0.0 mm 0.00 in0.0 mm 0.58 in14.7 mm
04:10 PM 60.1°F15.6°C 58.3°F14.6°C 94% 4.7 mph E7.6 kmh E 5.7 mph9.2 kmh 29.65 in1004.1 mb 0.00 in0.0 mm 0.00 in0.0 mm 0.58 in14.7 mm
04:20 PM 59.7°F15.4°C 58.0°F14.4°C 94% 4.7 mph E7.6 kmh E 5.7 mph9.2 kmh 29.65 in1004.1 mb 0.00 in0.0 mm 0.00 in0.0 mm 0.58 in14.7 mm
04:30 PM 59.7°F15.4°C 58.0°F14.4°C 94% 4.7 mph E7.6 kmh E 5.7 mph9.2 kmh 29.62 in1003.0 mb 0.00 in0.0 mm 0.00 in0.0 mm 0.58 in14.7 mm
04:40 PM 59.5°F15.3°C 57.8°F14.3°C 94% 4.7 mph E7.6 kmh E 5.7 mph9.2 kmh 29.65 in1004.1 mb 0.00 in0.0 mm 0.00 in0.0 mm 0.58 in14.7 mm
04:50 PM 59.2°F15.1°C 57.5°F14.2°C 94% 4.7 mph E7.6 kmh E 5.7 mph9.2 kmh 29.65 in1004.1 mb 0.00 in0.0 mm 0.00 in0.0 mm 0.58 in14.7 mm
05:00 PM 58.8°F14.9°C 57.1°F13.9°C 94% 4.7 mph E7.6 kmh E 5.7 mph9.2 kmh 29.65 in1004.1 mb 0.00 in0.0 mm 0.00 in0.0 mm 0.58 in14.7 mm
05:10 PM 58.5°F14.7°C 56.4°F13.6°C 93% 4.7 mph E7.6 kmh E 5.7 mph9.2 kmh 29.65 in1004.1 mb 0.00 in0.0 mm 0.00 in0.0 mm 0.58 in14.7 mm
05:20 PM 58.3°F14.6°C 56.3°F13.5°C 93% 4.7 mph E7.6 kmh E 5.7 mph9.2 kmh 29.65 in1004.1 mb 0.00 in0.0 mm 0.00 in0.0 mm 0.58 in14.7 mm
05:30 PM 58.1°F14.5°C 56.4°F13.6°C 94% 4.7 mph E7.6 kmh E 5.7 mph9.2 kmh 29.65 in1004.1 mb 0.00 in0.0 mm 0.00 in0.0 mm 0.58 in14.7 mm
05:40 PM 57.9°F14.4°C 56.2°F13.4°C 94% 4.7 mph E7.6 kmh E 5.7 mph9.2 kmh 29.65 in1004.1 mb 0.00 in0.0 mm 0.00 in0.0 mm 0.58 in14.7 mm
05:50 PM 57.7°F14.3°C 56.0°F13.3°C 94% 4.7 mph E7.6 kmh E 5.7 mph9.2 kmh 29.65 in1004.1 mb 0.00 in0.0 mm 0.00 in0.0 mm 0.58 in14.7 mm
06:00 PM 57.6°F14.2°C 55.8°F13.2°C 94% 4.7 mph E7.6 kmh E 5.7 mph9.2 kmh 29.65 in1004.1 mb 0.00 in0.0 mm 0.00 in0.0 mm 0.58 in14.7 mm
06:10 PM 57.4°F14.1°C 55.7°F13.2°C 94% 4.7 mph E7.6 kmh E 5.7 mph9.2 kmh 29.68 in1005.1 mb 0.00 in0.0 mm 0.00 in0.0 mm 0.58 in14.7 mm
06:20 PM 57.2°F14.0°C 55.5°F13.1°C 94% 4.7 mph E7.6 kmh E 5.7 mph9.2 kmh 29.68 in1005.1 mb 0.00 in0.0 mm 0.00 in0.0 mm 0.58 in14.7 mm
06:30 PM 57.2°F14.0°C 55.5°F13.1°C 94% 4.7 mph E7.6 kmh E 5.7 mph9.2 kmh 29.68 in1005.1 mb 0.00 in0.0 mm 0.00 in0.0 mm 0.58 in14.7 mm
06:40 PM 57.0°F13.9°C 55.3°F12.9°C 94% 4.7 mph E7.6 kmh E 5.7 mph9.2 kmh 29.68 in1005.1 mb 0.00 in0.0 mm 0.00 in0.0 mm 0.58 in14.7 mm
06:50 PM 56.8°F13.8°C 55.1°F12.8°C 94% 4.7 mph E7.6 kmh E 5.7 mph9.2 kmh 29.68 in1005.1 mb 0.00 in0.0 mm 0.00 in0.0 mm 0.58 in14.7 mm
07:00 PM 56.5°F13.6°C 54.8°F12.7°C 94% 4.7 mph E7.6 kmh E 5.7 mph9.2 kmh 29.68 in1005.1 mb 0.00 in0.0 mm 0.00 in0.0 mm 0.58 in14.7 mm
07:10 PM 56.3°F13.5°C 54.6°F12.6°C 94% 4.7 mph E7.6 kmh E 5.7 mph9.2 kmh 29.68 in1005.1 mb 0.00 in0.0 mm 0.00 in0.0 mm 0.58 in14.7 mm
07:20 PM 56.3°F13.5°C 54.6°F12.6°C 94% 4.7 mph E7.6 kmh E 5.7 mph9.2 kmh 29.68 in1005.1 mb 0.00 in0.0 mm 0.00 in0.0 mm 0.58 in14.7 mm
07:30 PM 56.5°F13.6°C 54.8°F12.7°C 94% 4.7 mph E7.6 kmh E 5.7 mph9.2 kmh 29.68 in1005.1 mb 0.00 in0.0 mm 0.00 in0.0 mm 0.58 in14.7 mm
07:40 PM 56.5°F13.6°C 54.8°F12.7°C 94% 4.7 mph E7.6 kmh E 5.7 mph9.2 kmh 29.68 in1005.1 mb 0.00 in0.0 mm 0.00 in0.0 mm 0.58 in14.7 mm
07:50 PM 56.5°F13.6°C 54.8°F12.7°C 94% 4.7 mph E7.6 kmh E 5.7 mph9.2 kmh 29.68 in1005.1 mb 0.00 in0.0 mm 0.00 in0.0 mm 0.58 in14.7 mm
08:00 PM 56.3°F13.5°C 54.6°F12.6°C 94% 4.7 mph E7.6 kmh E 5.7 mph9.2 kmh 29.68 in1005.1 mb 0.00 in0.0 mm 0.00 in0.0 mm 0.58 in14.7 mm
08:10 PM 56.1°F13.4°C 54.4°F12.4°C 94% 4.7 mph E7.6 kmh E 5.7 mph9.2 kmh 29.68 in1005.1 mb 0.00 in0.0 mm 0.00 in0.0 mm 0.58 in14.7 mm
08:20 PM 55.8°F13.2°C 54.1°F12.3°C 94% 4.7 mph E7.6 kmh E 5.7 mph9.2 kmh 29.68 in1005.1 mb 0.00 in0.0 mm 0.00 in0.0 mm 0.58 in14.7 mm
08:30 PM 55.4°F13.0°C 53.7°F12.1°C 94% 4.7 mph E7.6 kmh E 5.7 mph9.2 kmh 29.68 in1005.1 mb 0.00 in0.0 mm 0.00 in0.0 mm 0.58 in14.7 mm
08:40 PM 55.4°F13.0°C 53.7°F12.1°C 94% 4.7 mph E7.6 kmh E 5.7 mph9.2 kmh 29.68 in1005.1 mb 0.00 in0.0 mm 0.00 in0.0 mm 0.58 in14.7 mm
08:50 PM 55.4°F13.0°C 54.0°F12.2°C 95% 4.7 mph E7.6 kmh E 5.7 mph9.2 kmh 29.68 in1005.1 mb 0.00 in0.0 mm 0.00 in0.0 mm 0.58 in14.7 mm
09:00 PM 55.4°F13.0°C 53.7°F12.1°C 94% 4.7 mph E7.6 kmh E 5.7 mph9.2 kmh 29.68 in1005.1 mb 0.00 in0.0 mm 0.00 in0.0 mm 0.58 in14.7 mm
09:10 PM 55.2°F12.9°C 53.8°F12.1°C 95% 4.7 mph E7.6 kmh E 5.7 mph9.2 kmh 29.68 in1005.1 mb 0.00 in0.0 mm 0.00 in0.0 mm 0.58 in14.7 mm
09:20 PM 55.2°F12.9°C 53.8°F12.1°C 95% 4.7 mph E7.6 kmh E 5.7 mph9.2 kmh 29.68 in1005.1 mb 0.00 in0.0 mm 0.00 in0.0 mm 0.58 in14.7 mm
09:30 PM 55.6°F13.1°C 54.2°F12.3°C 95% 4.7 mph E7.6 kmh E 5.7 mph9.2 kmh 29.68 in1005.1 mb 0.00 in0.0 mm 0.00 in0.0 mm 0.58 in14.7 mm
09:40 PM 55.8°F13.2°C 54.3°F12.4°C 95% 4.7 mph E7.6 kmh E 5.7 mph9.2 kmh 29.71 in1006.1 mb 0.00 in0.0 mm 0.00 in0.0 mm 0.58 in14.7 mm
09:50 PM 55.9°F13.3°C 54.5°F12.5°C 95% 4.7 mph E7.6 kmh E 5.7 mph9.2 kmh 29.71 in1006.1 mb 0.00 in0.0 mm 0.00 in0.0 mm 0.58 in14.7 mm
10:00 PM 55.9°F13.3°C 54.5°F12.5°C 95% 4.7 mph E7.6 kmh E 5.7 mph9.2 kmh 29.68 in1005.1 mb 0.00 in0.0 mm 0.00 in0.0 mm 0.58 in14.7 mm
10:10 PM 56.1°F13.4°C 54.7°F12.6°C 95% 4.7 mph E7.6 kmh E 5.7 mph9.2 kmh 29.71 in1006.1 mb 0.00 in0.0 mm 0.00 in0.0 mm 0.58 in14.7 mm
10:20 PM 56.1°F13.4°C 54.7°F12.6°C 95% 4.7 mph E7.6 kmh E 5.7 mph9.2 kmh 29.71 in1006.1 mb 0.00 in0.0 mm 0.00 in0.0 mm 0.58 in14.7 mm
10:30 PM 56.1°F13.4°C 54.7°F12.6°C 95% 4.7 mph E7.6 kmh E 5.7 mph9.2 kmh 29.71 in1006.1 mb 0.00 in0.0 mm 0.00 in0.0 mm 0.58 in14.7 mm
10:40 PM 56.1°F13.4°C 54.7°F12.6°C 95% 4.7 mph E7.6 kmh E 5.7 mph9.2 kmh 29.71 in1006.1 mb 0.00 in0.0 mm 0.00 in0.0 mm 0.58 in14.7 mm
10:50 PM 55.9°F13.3°C 54.5°F12.5°C 95% 4.7 mph E7.6 kmh E 5.7 mph9.2 kmh 29.71 in1006.1 mb 0.00 in0.0 mm 0.00 in0.0 mm 0.58 in14.7 mm
11:00 PM 55.9°F13.3°C 54.5°F12.5°C 95% 4.7 mph E7.6 kmh E 5.7 mph9.2 kmh 29.68 in1005.1 mb 0.00 in0.0 mm 0.00 in0.0 mm 0.45 in11.4 mm
11:10 PM 55.9°F13.3°C 54.5°F12.5°C 95% 4.7 mph E7.6 kmh E 5.7 mph9.2 kmh 29.71 in1006.1 mb 0.00 in0.0 mm 0.00 in0.0 mm 0.45 in11.4 mm
11:20 PM 56.1°F13.4°C 54.7°F12.6°C 95% 4.7 mph E7.6 kmh E 5.7 mph9.2 kmh 29.71 in1006.1 mb 0.00 in0.0 mm 0.00 in0.0 mm 0.45 in11.4 mm
11:30 PM 56.1°F13.4°C 54.7°F12.6°C 95% 4.7 mph E7.6 kmh E 5.7 mph9.2 kmh 29.68 in1005.1 mb 0.00 in0.0 mm 0.00 in0.0 mm 0.45 in11.4 mm
11:40 PM 56.1°F13.4°C 54.7°F12.6°C 95% 4.7 mph E7.6 kmh E 5.7 mph9.2 kmh 29.68 in1005.1 mb 0.00 in0.0 mm 0.00 in0.0 mm 0.45 in11.4 mm
11:50 PM 56.3°F13.5°C 54.9°F12.7°C 95% 4.7 mph E7.6 kmh E 5.7 mph9.2 kmh 29.68 in1005.1 mb 0.00 in0.0 mm 0.00 in0.0 mm 0.45 in11.4 mm